Time;durP1;ratioP1;P1;durP2;ratioP2;P2;SDS_P1;SDS_P2;PMS_P1;PMS_P2;Temp;Humidity;BMP_temperature;BMP_pressure;BME280_temperature;BME280_humidity;BME280_pressure;Samples;Min_cycle;Max_cycle;Signal;HPM_P1;HPM_P2
2023/08/03 00:00:29;;;;;;;6.63;1.80;;;18.60;95.40;;;20.99;66.24;98988.56;4996864;28;20218;-61
2023/08/03 00:02:56;;;;;;;1.60;1.43;;;18.60;95.40;;;21.03;66.50;98980.78;4996029;28;20298;-60
2023/08/03 00:05:24;;;;;;;3.80;1.47;;;18.60;95.40;;;21.05;66.20;98981.31;4996957;28;20200;-61
2023/08/03 00:07:52;;;;;;;2.87;1.50;;;18.60;95.40;;;21.07;66.14;98979.94;4997053;28;20203;-61
2023/08/03 00:10:20;;;;;;;2.40;1.40;;;18.60;95.40;;;21.07;66.60;98979.94;4996392;28;20243;-60
2023/08/03 00:12:49;;;;;;;3.87;1.50;;;18.60;95.40;;;21.00;66.33;98974.13;4996777;28;20227;-61
2023/08/03 00:15:17;;;;;;;4.27;1.20;;;18.60;95.40;;;20.98;66.43;98976.28;4996689;28;20250;-58
2023/08/03 00:17:46;;;;;;;2.90;1.57;;;18.60;95.40;;;20.96;66.09;98962.41;4996590;28;20243;-61
2023/08/03 00:20:13;;;;;;;2.10;1.20;;;18.60;95.40;;;20.97;66.59;98961.28;4996179;28;20573;-61
2023/08/03 00:22:40;;;;;;;4.13;1.50;;;18.60;95.40;;;20.97;66.38;98957.84;4996573;28;20219;-61
2023/08/03 00:25:08;;;;;;;3.20;1.30;;;18.60;95.30;;;20.96;66.13;98967.75;4996478;28;20723;-61
2023/08/03 00:27:35;;;;;;;3.43;1.20;;;18.60;95.30;;;20.91;66.33;98968.59;4995126;28;20234;-60
2023/08/03 00:30:02;;;;;;;3.07;1.50;;;18.60;95.30;;;20.91;66.38;98965.94;4996113;28;20588;-60
2023/08/03 00:32:30;;;;;;;3.43;1.80;;;18.60;95.30;;;20.91;66.56;98965.13;4996522;28;20223;-61
2023/08/03 00:34:58;;;;;;;3.53;1.43;;;18.50;95.30;;;20.84;66.35;98964.69;4996131;28;20192;-61
2023/08/03 00:37:25;;;;;;;3.63;1.60;;;18.50;95.30;;;20.85;66.61;98966.25;4995951;28;20191;-60
2023/08/03 00:39:52;;;;;;;4.47;1.63;;;18.50;95.30;;;20.89;66.31;98965.41;4995996;28;20235;-60
2023/08/03 00:42:19;;;;;;;3.43;1.60;;;18.50;95.30;;;20.95;66.26;98952.75;4998872;28;20199;-57
2023/08/03 00:44:46;;;;;;;5.17;1.83;;;18.60;95.40;;;21.01;66.05;98943.63;5007775;28;20287;-59
2023/08/03 00:47:14;;;;;;;2.97;1.50;;;18.60;95.30;;;21.02;66.06;98947.06;4996002;28;20203;-61
2023/08/03 00:49:41;;;;;;;2.40;1.47;;;18.60;95.20;;;20.97;66.42;98955.19;4995961;28;20751;-59
2023/08/03 00:52:09;;;;;;;3.77;1.53;;;18.60;95.20;;;20.92;65.93;98939.94;4994485;28;20226;-60
2023/08/03 00:54:37;;;;;;;2.57;1.30;;;18.60;95.10;;;20.92;66.37;98945.31;4996084;28;20279;-58
2023/08/03 00:57:05;;;;;;;3.47;1.50;;;18.60;95.10;;;20.96;66.28;98946.34;4995870;28;20196;-60
2023/08/03 00:59:33;;;;;;;2.83;1.53;;;18.60;95.10;;;20.97;66.06;98939.13;4995644;28;20219;-56
2023/08/03 01:02:00;;;;;;;2.47;1.40;;;18.60;95.10;;;21.00;65.77;98931.31;4995783;28;20199;-60
2023/08/03 01:04:27;;;;;;;2.30;1.20;;;18.60;95.10;;;21.03;65.81;98941.44;4995923;28;20668;-60
2023/08/03 01:06:54;;;;;;;1.93;1.30;;;18.60;95.10;;;21.06;65.64;98932.84;4995625;28;20227;-61
2023/08/03 01:09:23;;;;;;;1.87;1.40;;;18.60;95.10;;;21.03;66.01;98930.75;4994518;28;20771;-63
2023/08/03 01:11:50;;;;;;;3.90;1.50;;;18.70;95.10;;;21.02;65.94;98934.50;4995634;28;20597;-60
2023/08/03 01:14:17;;;;;;;3.23;1.73;;;18.60;95.00;;;21.02;65.50;98922.97;4994271;28;20220;-60
2023/08/03 01:16:44;;;;;;;5.73;1.50;;;18.60;95.00;;;21.03;65.79;98913.88;4995398;28;20752;-60
2023/08/03 01:19:13;;;;;;;4.10;1.93;;;18.60;95.00;;;21.05;65.74;98923.25;4995295;28;20219;-59
2023/08/03 01:21:45;;;;;;;4.73;1.30;;;18.60;94.90;;;21.05;65.68;98914.41;4995605;28;20210;-59
2023/08/03 01:24:14;;;;;;;4.63;1.70;;;18.70;95.30;;;21.07;65.54;98910.38;4995398;28;20230;-60
2023/08/03 01:26:42;;;;;;;3.73;1.47;;;18.60;94.90;;;21.06;65.26;98906.09;4995449;28;20252;-60
2023/08/03 01:29:09;;;;;;;6.87;1.90;;;18.60;94.90;;;21.01;65.49;98911.50;4993696;28;20203;-59
2023/08/03 01:31:36;;;;;;;7.50;1.80;;;18.60;94.80;;;21.02;65.80;98897.03;4995209;28;20219;-59
2023/08/03 01:34:03;;;;;;;3.83;1.57;;;18.60;94.80;;;21.06;65.72;98895.38;4995153;28;20787;-59
2023/08/03 01:36:31;;;;;;;2.87;1.50;;;18.60;94.80;;;21.09;65.19;98900.19;4994964;28;20199;-58
2023/08/03 01:39:06;;;;;;;1.77;1.30;;;18.60;94.80;;;21.08;65.52;98895.94;4994736;28;20254;-59
2023/08/03 01:41:38;;;;;;;4.80;1.70;;;18.60;94.80;;;21.11;65.06;98889.97;4994944;28;20202;-60
2023/08/03 01:44:29;;;;;;;2.73;1.43;;;18.60;94.80;;;21.02;65.21;98886.31;4995011;28;20176;-61
2023/08/03 01:46:58;;;;;;;3.83;1.67;;;18.70;94.80;;;21.06;65.22;98882.00;4994322;28;20204;-56
2023/08/03 01:49:28;;;;;;;1.83;1.10;;;18.70;94.80;;;21.12;65.31;98872.84;4994767;28;20239;-59
2023/08/03 01:51:56;;;;;;;5.60;1.73;;;18.70;94.80;;;21.18;65.25;98873.59;4994742;28;20218;-57
2023/08/03 01:54:24;;;;;;;7.70;1.77;;;18.70;94.80;;;21.18;64.65;98873.59;4994723;28;20683;-59
2023/08/03 01:56:53;;;;;;;2.83;1.50;;;18.70;94.70;;;21.15;64.78;98866.13;4994927;28;20282;-57
2023/08/03 01:59:21;;;;;;;4.83;1.80;;;18.70;94.70;;;21.17;64.96;98871.97;4994599;28;20242;-60
2023/08/03 02:01:48;;;;;;;3.20;1.43;;;18.70;94.60;;;21.11;64.96;98859.78;4994942;28;20266;-60
2023/08/03 02:04:15;;;;;;;4.63;1.53;;;18.70;94.60;;;21.07;65.08;98862.22;5007651;28;20660;-60
2023/08/03 02:06:48;;;;;;;2.63;1.40;;;18.70;94.60;;;21.01;65.20;98852.66;5014424;28;20683;-59
2023/08/03 02:09:15;;;;;;;5.53;1.60;;;18.70;94.60;;;21.03;65.59;98849.66;5013867;28;20307;-60
2023/08/03 02:11:43;;;;;;;3.33;1.70;;;18.70;94.60;;;20.94;65.80;98846.84;5013428;28;20258;-59
2023/08/03 02:14:11;;;;;;;3.73;1.40;;;18.70;94.50;;;21.04;65.60;98852.03;5014028;28;20686;-59
2023/08/03 02:16:38;;;;;;;6.33;1.77;;;18.80;94.60;;;21.11;65.22;98852.50;5014194;28;20219;-57
2023/08/03 02:19:05;;;;;;;4.23;1.80;;;18.80;94.50;;;21.13;64.78;98845.00;5013954;28;20200;-58
2023/08/03 02:21:32;;;;;;;4.23;1.43;;;18.80;94.40;;;21.09;65.36;98854.69;5014318;28;20198;-59
2023/08/03 02:23:59;;;;;;;7.37;1.60;;;18.80;94.40;;;21.08;65.12;98838.94;5013284;28;20234;-58
2023/08/03 02:26:26;;;;;;;5.93;1.83;;;18.80;94.40;;;21.13;65.23;98850.38;5013538;28;20270;-61
2023/08/03 02:28:53;;;;;;;4.87;1.57;;;18.80;94.40;;;21.12;65.32;98843.41;5012432;28;20687;-58
2023/08/03 02:31:22;;;;;;;4.13;1.50;;;18.80;94.40;;;21.13;65.42;98844.22;5013928;28;20187;-62
2023/08/03 02:33:49;;;;;;;4.57;1.30;;;18.80;94.40;;;21.12;65.63;98854.13;5013991;28;20248;-59
2023/08/03 02:36:16;;;;;;;5.37;1.67;;;18.90;94.60;;;21.14;65.54;98838.56;5013934;28;20226;-60
2023/08/03 02:38:43;;;;;;;5.07;1.30;;;18.80;94.70;;;21.08;65.64;98839.72;5013509;28;20274;-61
2023/08/03 02:41:10;;;;;;;3.63;1.80;;;18.90;94.70;;;21.02;66.46;98837.38;5013857;28;20288;-61
2023/08/03 02:43:37;;;;;;;5.33;1.80;;;18.80;94.80;;;20.98;66.48;98831.81;4999349;28;20592;-61
2023/08/03 02:46:04;;;;;;;4.47;1.60;;;18.80;95.00;;;20.92;66.97;98832.94;4975899;28;20193;-61
2023/08/03 02:48:32;;;;;;;4.70;1.93;;;18.70;95.10;;;20.89;67.04;98828.19;4974821;28;20237;-62
2023/08/03 02:50:59;;;;;;;2.13;1.30;;;18.70;95.40;;;20.82;67.61;98830.44;4974607;28;20235;-61
2023/08/03 02:53:26;;;;;;;3.47;1.50;;;18.60;95.40;;;20.72;67.57;98826.03;4974539;28;20303;-58
2023/08/03 02:55:53;;;;;;;3.33;1.40;;;18.50;95.60;;;20.70;68.00;98824.72;4974375;28;20199;-62
2023/08/03 02:58:21;;;;;;;3.37;1.60;;;18.50;95.80;;;20.72;68.09;98817.19;4974531;28;20219;-61
2023/08/03 03:00:48;;;;;;;4.90;1.50;;;18.40;95.90;;;20.75;67.90;98814.72;4989821;28;20253;-61
2023/08/03 03:03:15;;;;;;;8.47;1.60;;;18.40;96.10;;;20.77;68.09;98815.25;4994425;28;20223;-57
2023/08/03 03:05:43;;;;;;;4.13;1.67;;;18.40;96.20;;;20.69;68.24;98813.22;4993895;28;20192;-58
2023/08/03 03:08:10;;;;;;;3.30;1.40;;;18.40;96.30;;;20.68;68.53;98816.19;4993945;28;20231;-60
2023/08/03 03:10:37;;;;;;;4.27;1.47;;;18.30;96.30;;;20.60;68.79;98816.81;4993608;28;20262;-59
2023/08/03 03:13:04;;;;;;;3.23;1.77;;;18.30;96.40;;;20.43;69.10;98803.94;4992868;28;20370;-62
2023/08/03 03:15:31;;;;;;;4.17;1.67;;;18.20;96.40;;;20.44;69.37;98804.72;4993925;28;20539;-62
2023/08/03 03:17:58;;;;;;;3.07;1.33;;;18.20;96.50;;;20.43;69.43;98813.81;4993656;28;20200;-61
2023/08/03 03:20:25;;;;;;;4.70;1.43;;;18.20;96.60;;;20.45;68.76;98808.97;4994114;28;20227;-60
2023/08/03 03:22:54;;;;;;;4.00;1.77;;;18.20;96.70;;;20.39;69.13;98805.59;4993692;28;20227;-60
2023/08/03 03:25:21;;;;;;;3.70;1.13;;;18.20;96.70;;;20.45;69.43;98817.00;4994071;28;20657;-61
2023/08/03 03:27:48;;;;;;;4.27;1.40;;;18.20;96.70;;;20.52;69.02;98817.44;4993662;28;20227;-60
2023/08/03 03:30:16;;;;;;;2.77;1.60;;;18.20;96.90;;;20.44;69.53;98815.41;4993978;28;20251;-60
2023/08/03 03:32:44;;;;;;;1.80;1.23;;;18.10;96.90;;;20.39;69.87;98818.16;4994079;28;20239;-60
2023/08/03 03:35:11;;;;;;;3.63;1.60;;;18.10;96.90;;;20.33;69.55;98813.94;4995917;28;20219;-60
2023/08/03 03:37:38;;;;;;;3.73;1.50;;;18.10;96.90;;;20.37;69.95;98809.63;4996879;28;20196;-60
2023/08/03 03:40:08;;;;;;;2.67;1.60;;;18.10;96.90;;;20.42;69.84;98817.59;4996707;28;20236;-61
2023/08/03 03:42:36;;;;;;;4.43;1.30;;;18.10;97.00;;;20.40;69.74;98809.03;5002610;28;20424;-58
2023/08/03 03:45:03;;;;;;;1.60;1.30;;;18.10;97.00;;;20.43;69.55;98819.16;5006195;28;20196;-60
2023/08/03 03:47:30;;;;;;;2.60;0.93;;;18.10;96.90;;;20.55;69.37;98819.53;4996953;28;20199;-61
2023/08/03 03:49:58;;;;;;;2.53;1.47;;;18.10;97.00;;;20.59;68.64;98824.03;4996889;28;20266;-59
2023/08/03 03:52:25;;;;;;;2.40;1.30;;;18.10;97.00;;;20.60;68.62;98819.50;4997140;28;20240;-61
2023/08/03 03:54:52;;;;;;;6.60;1.60;;;18.10;97.00;;;20.56;69.06;98829.19;4996636;28;20220;-60
2023/08/03 03:57:20;;;;;;;3.07;1.27;;;18.10;96.80;;;20.56;68.78;98823.81;4997129;28;20266;-59
2023/08/03 03:59:47;;;;;;;4.77;1.30;;;18.20;96.90;;;20.59;69.01;98828.56;4996533;28;20263;-60
2023/08/03 04:02:14;;;;;;;1.87;1.13;;;18.10;96.90;;;20.46;69.32;98829.28;4996660;28;20200;-59
2023/08/03 04:04:41;;;;;;;2.60;1.13;;;18.10;97.00;;;20.49;69.77;98828.72;4995570;28;20649;-61
2023/08/03 04:07:08;;;;;;;2.10;1.10;;;18.20;97.00;;;20.54;69.40;98836.69;4996787;28;20224;-60
2023/08/03 04:09:35;;;;;;;1.17;1.07;;;18.20;97.00;;;20.52;69.04;98833.47;4995105;28;20275;-60
2023/08/03 04:12:03;;;;;;;1.27;1.03;;;18.20;97.00;;;20.56;69.37;98837.19;4996795;28;20694;-61
2023/08/03 04:14:31;;;;;;;1.50;1.00;;;18.20;97.00;;;20.59;69.50;98842.75;4996336;28;20239;-59
2023/08/03 04:16:59;;;;;;;2.33;1.00;;;18.20;97.00;;;20.65;68.89;98844.28;4996846;28;20196;-60
2023/08/03 04:19:25;;;;;;;4.80;1.50;;;18.20;97.00;;;20.59;68.90;98847.28;4996175;28;20703;-61
2023/08/03 04:21:53;;;;;;;1.33;1.00;;;18.20;97.00;;;20.60;68.98;98847.03;4996502;28;20204;-60
2023/08/03 04:24:20;;;;;;;1.37;1.10;;;18.20;97.00;;;20.63;69.28;98848.34;4998038;28;20204;-60
2023/08/03 04:26:47;;;;;;;1.10;1.00;;;18.30;97.00;;;20.69;68.83;98853.31;5003706;28;20200;-57
2023/08/03 04:29:14;;;;;;;0.93;0.77;;;18.30;97.00;;;20.76;69.28;98855.63;4996098;28;20239;-65
2023/08/03 04:31:42;;;;;;;1.20;0.90;;;18.30;97.30;;;20.74;68.44;98858.63;4996256;28;20246;-59
2023/08/03 04:34:10;;;;;;;1.93;1.20;;;18.30;96.90;;;20.73;69.17;98857.00;4996059;28;20212;-58
2023/08/03 04:36:37;;;;;;;2.43;1.10;;;18.30;96.90;;;20.80;68.59;98856.69;4995932;28;20673;-62
2023/08/03 04:39:04;;;;;;;1.37;1.10;;;18.40;96.90;;;20.78;69.04;98862.28;4995681;28;20342;-58
2023/08/03 04:41:31;;;;;;;2.37;1.00;;;18.40;96.90;;;20.79;68.92;98866.56;4995749;28;20200;-60
2023/08/03 04:43:58;;;;;;;1.23;1.00;;;18.40;96.90;;;20.81;68.94;98874.31;5009156;28;20203;-59
2023/08/03 04:46:25;;;;;;;1.57;1.13;;;18.40;96.90;;;20.85;68.87;98870.75;4996110;28;20251;-60
2023/08/03 04:48:53;;;;;;;1.23;1.13;;;18.50;96.90;;;20.86;68.66;98876.91;4994588;28;20202;-58
2023/08/03 04:51:20;;;;;;;1.63;1.13;;;18.50;96.90;;;20.88;68.46;98874.75;4995881;28;20246;-62
2023/08/03 04:53:47;;;;;;;1.40;1.30;;;18.50;96.80;;;20.95;68.49;98885.88;4995463;28;20211;-61
2023/08/03 04:56:14;;;;;;;1.20;1.00;;;18.50;96.90;;;21.02;68.62;98891.69;4995466;28;20192;-60
2023/08/03 04:58:41;;;;;;;1.30;1.20;;;18.50;96.90;;;21.07;68.80;98883.63;4995081;28;20653;-62
2023/08/03 05:01:09;;;;;;;2.00;1.13;;;18.60;96.90;;;21.18;68.38;98887.72;4994176;28;20226;-61
2023/08/03 05:03:36;;;;;;;1.23;1.10;;;18.60;97.00;;;21.28;68.13;98887.59;4995404;28;20207;-62
2023/08/03 05:06:05;;;;;;;2.30;1.50;;;18.70;97.00;;;21.35;67.38;98880.00;4995520;28;20315;-59
2023/08/03 05:08:32;;;;;;;1.57;1.40;;;18.70;96.90;;;21.34;67.66;98882.97;4993667;28;20535;-60
2023/08/03 05:10:59;;;;;;;1.30;1.20;;;18.70;96.80;;;21.40;67.77;98893.31;4995497;28;20668;-60
2023/08/03 05:13:26;;;;;;;1.30;1.30;;;18.80;96.90;;;21.42;67.18;98887.66;4995205;28;20275;-61
2023/08/03 05:15:53;;;;;;;1.90;1.53;;;18.80;96.60;;;21.39;67.46;98897.09;4995230;28;20219;-59
2023/08/03 05:18:20;;;;;;;1.60;1.50;;;18.80;96.50;;;21.39;67.45;98889.06;4995114;28;20207;-62
2023/08/03 05:20:47;;;;;;;1.30;1.20;;;18.90;96.50;;;21.43;67.06;98886.59;4994865;28;20224;-59
2023/08/03 05:23:16;;;;;;;2.40;1.60;;;18.90;96.40;;;21.43;67.31;98903.44;4995072;28;20217;-60
2023/08/03 05:25:43;;;;;;;1.50;1.40;;;19.00;96.70;;;21.48;67.03;98892.66;4994904;28;20708;-61
2023/08/03 05:28:10;;;;;;;1.60;1.47;;;18.90;96.40;;;21.51;67.09;98900.09;4995148;28;20215;-58
2023/08/03 05:30:37;;;;;;;1.93;1.83;;;19.00;96.40;;;21.62;67.66;98898.06;4994840;28;20663;-60
2023/08/03 05:33:05;;;;;;;1.47;1.37;;;19.10;96.60;;;21.69;66.90;98911.09;4994609;28;20278;-59
2023/08/03 05:35:32;;;;;;;3.90;1.70;;;19.10;96.50;;;21.66;66.72;98911.66;4994562;28;20216;-60
2023/08/03 05:37:59;;;;;;;1.40;1.30;;;19.10;96.30;;;21.56;67.17;98901.94;4994411;28;20200;-59
2023/08/03 05:40:27;;;;;;;1.93;1.43;;;19.10;96.20;;;21.52;67.41;98914.28;4994251;28;20250;-63
2023/08/03 05:42:54;;;;;;;1.80;1.30;;;19.10;96.30;;;21.43;67.73;98918.72;5002079;28;20227;-60
2023/08/03 05:45:39;;;;;;;2.97;1.70;;;19.10;96.20;;;21.38;67.36;98914.22;5001082;28;20758;-61
2023/08/03 05:48:13;;;;;;;2.57;1.50;;;19.10;96.30;;;21.35;67.57;98911.31;4998284;28;20273;-63
2023/08/03 05:50:42;;;;;;;1.77;1.67;;;19.00;96.30;;;21.36;67.94;98913.72;5013979;28;20235;-61
2023/08/03 05:53:10;;;;;;;2.77;1.60;;;19.00;96.50;;;21.40;68.25;98920.09;5012969;28;20231;-59
2023/08/03 05:55:40;;;;;;;2.67;2.20;;;19.00;96.60;;;21.31;68.16;98921.03;5013330;28;20300;-61
2023/08/03 05:58:11;;;;;;;4.53;4.20;;;19.00;96.50;;;21.34;68.38;98921.25;5014193;28;20270;-60
2023/08/03 06:00:41;;;;;;;2.83;2.00;;;19.00;96.60;;;21.36;68.18;98926.31;5012196;28;20761;-61
2023/08/03 06:03:13;;;;;;;2.30;2.10;;;19.00;96.50;;;21.33;67.76;98926.88;5014015;28;20215;-61
2023/08/03 06:05:43;;;;;;;2.37;1.87;;;19.00;96.50;;;21.39;68.11;98939.13;5013997;28;20210;-60
2023/08/03 06:08:16;;;;;;;2.77;1.83;;;19.00;96.50;;;21.44;67.45;98934.47;5013771;28;20191;-61
2023/08/03 06:10:47;;;;;;;2.70;1.87;;;19.00;96.50;;;21.46;67.68;98931.53;5013447;28;20257;-58
2023/08/03 06:13:17;;;;;;;2.30;2.10;;;19.00;96.50;;;21.46;67.36;98937.69;5013603;28;20278;-59
2023/08/03 06:15:46;;;;;;;3.37;2.00;;;19.00;96.50;;;21.33;67.97;98946.41;5013558;28;20219;-59
2023/08/03 06:18:16;;;;;;;2.80;1.70;;;19.00;96.50;;;21.37;68.03;98947.44;5013669;28;20199;-60
2023/08/03 06:20:46;;;;;;;2.63;1.80;;;19.10;96.50;;;21.42;67.96;98959.94;5013284;28;20611;-60
2023/08/03 06:23:18;;;;;;;2.07;1.73;;;19.00;96.50;;;21.46;67.69;98956.44;5012470;28;20227;-60
2023/08/03 06:25:49;;;;;;;3.47;1.80;;;19.00;96.50;;;21.52;67.59;98971.31;5013553;28;20183;-59
2023/08/03 06:28:18;;;;;;;1.80;1.60;;;19.10;96.50;;;21.59;67.41;98982.47;5012913;28;20640;-59
2023/08/03 06:30:48;;;;;;;1.90;1.70;;;19.10;96.50;;;21.67;67.26;98982.91;5013110;28;20219;-61
2023/08/03 06:33:17;;;;;;;2.53;2.07;;;19.10;96.50;;;21.63;67.20;98987.25;5013704;28;20601;-59
2023/08/03 06:35:46;;;;;;;2.27;2.00;;;19.10;96.40;;;21.65;67.10;98995.78;5013835;28;20676;-60
2023/08/03 06:38:16;;;;;;;1.53;1.40;;;19.10;96.30;;;21.66;67.02;98997.38;5013185;28;20221;-58
2023/08/03 06:40:47;;;;;;;2.60;1.83;;;19.10;96.30;;;21.66;66.89;99008.06;5012034;28;20226;-60
2023/08/03 06:43:15;;;;;;;3.13;1.80;;;19.10;96.30;;;21.70;66.95;99009.13;5013317;28;20191;-61
2023/08/03 06:45:42;;;;;;;2.03;1.93;;;19.10;96.40;;;21.75;67.37;99017.09;4998284;28;20232;-57
2023/08/03 06:48:11;;;;;;;5.73;2.40;;;19.20;96.50;;;21.81;66.85;99015.91;4994146;28;20227;-61
2023/08/03 06:50:38;;;;;;;2.27;1.90;;;19.20;96.50;;;21.88;66.77;99024.41;4992046;28;20235;-61
2023/08/03 06:53:06;;;;;;;2.50;2.30;;;19.20;96.50;;;21.95;66.79;99025.63;4993320;28;20200;-60
2023/08/03 06:55:33;;;;;;;3.13;2.17;;;19.20;96.50;;;22.03;66.70;99025.00;4993741;28;20216;-60
2023/08/03 06:58:01;;;;;;;3.77;2.53;;;19.30;96.40;;;22.12;66.18;99035.84;4993921;28;20279;-61
2023/08/03 07:00:28;;;;;;;3.97;2.37;;;19.40;96.30;;;22.22;66.35;99041.06;4993294;28;20219;-61
2023/08/03 07:02:56;;;;;;;5.33;2.47;;;19.50;96.40;;;22.29;65.90;99041.47;4993599;28;20560;-60
2023/08/03 07:05:25;;;;;;;5.17;4.67;;;19.50;96.20;;;22.40;65.89;99047.44;4995791;28;20192;-61
2023/08/03 07:07:52;;;;;;;2.37;2.17;;;19.60;96.20;;;22.46;65.42;99052.47;5003309;28;20200;-60
2023/08/03 07:10:19;;;;;;;2.50;2.30;;;19.70;96.00;;;22.52;65.53;99048.59;4997196;28;20294;-61
2023/08/03 07:12:47;;;;;;;3.17;2.60;;;19.70;95.90;;;22.62;65.29;99051.13;4997354;28;20196;-60
2023/08/03 07:15:15;;;;;;;3.40;2.87;;;19.80;95.90;;;22.78;65.47;99044.41;4997800;28;20306;-58
2023/08/03 07:17:42;;;;;;;7.17;2.83;;;19.90;95.90;;;22.81;64.42;99051.88;4997167;28;20242;-58
2023/08/03 07:20:11;;;;;;;3.73;2.50;;;20.00;95.40;;;22.95;64.56;99057.25;4997032;28;20549;-59
2023/08/03 07:22:38;;;;;;;3.27;2.33;;;20.10;95.50;;;23.15;64.51;99061.44;4997277;28;20188;-59
2023/08/03 07:25:06;;;;;;;3.33;2.23;;;20.20;95.50;;;23.30;63.76;99058.44;4996273;28;20218;-59
2023/08/03 07:27:33;;;;;;;2.90;2.40;;;20.40;95.50;;;23.48;63.59;99060.28;4996938;28;20293;-60
2023/08/03 07:30:00;;;;;;;7.57;3.17;;;20.50;95.40;;;23.59;63.21;99067.03;4996889;28;20262;-60
2023/08/03 07:32:29;;;;;;;3.67;2.30;;;20.60;95.00;;;23.68;62.80;99064.44;4996150;28;20242;-60
2023/08/03 07:34:56;;;;;;;2.67;2.20;;;20.70;94.70;;;23.71;62.36;99067.31;4997332;28;20239;-56
2023/08/03 07:37:23;;;;;;;3.43;2.43;;;20.80;94.60;;;23.63;60.50;99076.06;4996521;28;20270;-60
2023/08/03 07:39:50;;;;;;;3.80;2.10;;;20.80;93.40;;;23.63;60.92;99077.97;4996672;28;20266;-59
2023/08/03 07:42:17;;;;;;;4.23;2.63;;;20.90;93.30;;;23.56;60.19;99078.34;4998791;28;20230;-60
2023/08/03 07:44:44;;;;;;;3.00;2.20;;;20.90;93.00;;;23.53;60.76;99081.66;5008611;28;20282;-60
2023/08/03 07:47:14;;;;;;;2.63;2.40;;;20.90;93.10;;;23.59;61.04;99083.13;4996360;28;20220;-60
2023/08/03 07:49:43;;;;;;;4.10;3.13;;;20.90;93.00;;;23.66;60.77;99094.28;4996619;28;20354;-61
2023/08/03 07:52:10;;;;;;;3.87;2.10;;;21.00;93.10;;;23.83;61.04;99099.84;4997011;28;20203;-58
2023/08/03 07:54:37;;;;;;;5.97;2.20;;;21.10;93.40;;;23.97;60.89;99099.78;5011754;28;20216;-60
2023/08/03 07:57:06;;;;;;;2.43;2.20;;;21.10;93.30;;;24.12;60.10;99097.63;4996537;28;20196;-59
2023/08/03 07:59:33;;;;;;;2.33;2.07;;;21.20;93.00;;;24.41;60.13;99101.78;4996433;28;20629;-57
2023/08/03 08:02:01;;;;;;;2.00;1.90;;;21.30;93.40;;;24.69;58.44;99108.63;4996298;28;20224;-55
2023/08/03 08:04:28;;;;;;;2.17;1.57;;;21.40;92.40;;;24.79;57.13;99106.50;4996441;28;20196;-60
2023/08/03 08:06:56;;;;;;;1.77;1.67;;;21.70;91.90;;;24.81;56.99;99104.31;4996105;28;20231;-61
2023/08/03 08:09:24;;;;;;;2.30;1.50;;;21.80;91.30;;;24.89;56.95;99105.44;4994743;28;20357;-60
2023/08/03 08:11:51;;;;;;;2.23;1.70;;;21.90;91.30;;;25.11;56.38;99102.72;4995982;28;20283;-58
2023/08/03 08:14:18;;;;;;;1.77;1.60;;;21.90;91.00;;;25.40;55.06;99110.28;4996604;28;20195;-60
2023/08/03 08:16:45;;;;;;;1.87;1.40;;;22.10;90.80;;;25.50;55.00;99115.44;4995792;28;20306;-58
2023/08/03 08:19:19;;;;;;;2.17;1.60;;;22.20;90.40;;;25.43;54.60;99115.84;4995768;28;20215;-59
2023/08/03 08:21:46;;;;;;;1.93;1.43;;;22.30;90.10;;;25.38;53.70;99115.19;4996379;28;20188;-62
2023/08/03 08:24:20;;;;;;;2.47;1.43;;;22.30;89.40;;;25.19;54.63;99115.44;4994614;28;20275;-57
2023/08/03 08:26:47;;;;;;;5.87;1.73;;;22.40;89.00;;;25.16;53.85;99110.66;4995833;28;20196;-58
2023/08/03 08:29:14;;;;;;;1.80;1.10;;;22.30;88.30;;;25.38;55.01;99113.31;4994790;28;20290;-61
2023/08/03 08:31:41;;;;;;;2.17;1.13;;;22.40;90.00;;;25.59;54.14;99118.94;4996205;28;20616;-60
2023/08/03 08:34:11;;;;;;;3.67;1.70;;;22.50;90.00;;;25.66;53.76;99118.47;4995819;28;20271;-61
2023/08/03 08:36:38;;;;;;;1.77;1.30;;;22.50;89.20;;;25.54;53.73;99127.97;4994670;28;20251;-59
2023/08/03 08:39:05;;;;;;;2.10;1.67;;;22.50;89.10;;;25.39;54.18;99112.19;4995595;28;20271;-60
2023/08/03 08:41:40;;;;;;;2.73;1.50;;;22.50;89.20;;;25.24;53.87;99127.97;4995717;28;20191;-61
2023/08/03 08:44:13;;;;;;;1.90;1.70;;;22.40;89.30;;;24.99;54.31;99132.13;5010087;28;20187;-61
2023/08/03 08:46:42;;;;;;;2.07;1.50;;;22.40;88.50;;;24.93;55.11;99138.75;4995708;28;20184;-62
2023/08/03 08:49:09;;;;;;;3.57;1.27;;;22.30;88.60;;;24.88;55.35;99120.81;4994554;28;20304;-61
2023/08/03 08:51:59;;;;;;;2.13;1.20;;;22.20;88.80;;;24.85;55.47;99134.09;5010019;28;20207;-60
2023/08/03 08:54:30;;;;;;;2.37;1.70;;;22.20;89.30;;;24.77;55.41;99134.84;4995433;28;20715;-61
2023/08/03 08:57:18;;;;;;;2.70;1.63;;;22.10;89.10;;;24.73;55.98;99140.00;4995654;28;20180;-61
2023/08/03 09:00:07;;;;;;;3.07;1.83;;;22.10;90.00;;;24.63;56.37;99155.59;4995265;28;20215;-61
2023/08/03 09:02:36;;;;;;;3.13;1.60;;;22.00;90.60;;;24.54;56.73;99168.19;4994277;28;20295;-59
2023/08/03 09:05:17;;;;;;;4.03;1.60;;;21.90;90.30;;;24.39;56.66;99179.31;4995201;28;20555;-60
2023/08/03 09:07:58;;;;;;;4.27;1.90;;;21.80;90.60;;;24.34;57.54;99187.50;4995898;28;20517;-60
2023/08/03 09:10:25;;;;;;;1.83;1.67;;;21.70;90.90;;;24.66;58.16;99188.09;4986292;28;20227;-58
2023/08/03 09:12:54;;;;;;;2.60;1.30;;;21.70;91.60;;;25.07;56.72;99185.25;4993026;28;20245;-61
2023/08/03 09:15:37;;;;;;;2.93;1.37;;;21.80;91.80;;;25.44;56.04;99200.19;4998931;28;20556;-60
2023/08/03 09:18:05;;;;;;;1.20;1.10;;;21.90;91.60;;;25.83;55.68;99204.81;4994945;28;20203;-60
2023/08/03 09:20:33;;;;;;;2.83;1.13;;;22.10;91.60;;;26.31;54.76;99210.19;4993353;28;20219;-62
2023/08/03 09:23:03;;;;;;;1.33;1.10;;;22.30;91.50;;;26.47;53.92;99214.03;4972973;28;20208;-61
2023/08/03 09:25:33;;;;;;;1.00;0.90;;;22.50;91.00;;;26.52;53.42;99220.06;4993511;28;20290;-60
2023/08/03 09:28:10;;;;;;;1.47;1.00;;;22.70;90.60;;;26.46;52.89;99213.22;5011290;28;20190;-59
2023/08/03 09:30:48;;;;;;;0.73;0.73;;;22.80;89.70;;;26.61;52.85;99215.47;4999880;28;20253;-62
2023/08/03 09:33:28;;;;;;;0.87;0.83;;;22.90;89.20;;;27.00;51.90;99227.25;5001579;28;20223;-60
2023/08/03 09:36:04;;;;;;;1.63;1.13;;;23.00;89.00;;;28.01;49.85;99225.38;5009173;28;20699;-60
2023/08/03 09:38:31;;;;;;;2.30;1.50;;;23.20;88.60;;;28.99;47.88;99238.41;5009189;28;20222;-61
2023/08/03 09:40:59;;;;;;;1.17;1.07;;;23.60;88.30;;;29.83;44.73;99242.50;4991281;28;20257;-60
2023/08/03 09:43:28;;;;;;;1.70;1.13;;;24.10;85.20;;;29.98;44.27;99241.81;5012883;28;20200;-60
2023/08/03 09:45:58;;;;;;;1.17;0.87;;;24.50;83.60;;;29.68;44.45;99254.00;5010914;28;20314;-60
2023/08/03 09:48:26;;;;;;;0.70;0.70;;;24.80;81.50;;;29.21;45.34;99262.47;4996562;28;20203;-63
2023/08/03 09:50:56;;;;;;;1.37;0.83;;;24.90;81.70;;;28.82;46.16;99260.22;4993600;28;20362;-60
2023/08/03 09:53:28;;;;;;;1.47;1.00;;;24.90;81.30;;;28.56;46.67;99263.09;5004927;28;20205;-60
2023/08/03 09:56:00;;;;;;;1.00;1.00;;;24.80;81.10;;;29.07;46.46;99267.38;4992417;28;20223;-59
2023/08/03 09:58:46;;;;;;;1.93;0.97;;;24.80;81.90;;;30.43;45.12;99264.22;4981703;28;20210;-61
2023/08/03 10:01:21;;;;;;;1.10;1.00;;;25.00;82.00;;;31.36;42.91;99284.81;4992672;28;20302;-61
2023/08/03 10:03:55;;;;;;;1.13;0.90;;;25.40;81.30;;;32.22;39.53;99283.16;4991591;28;20580;-60
2023/08/03 10:06:27;;;;;;;0.90;0.73;;;25.90;77.10;;;32.73;38.55;99271.09;4987074;28;20239;-62
2023/08/03 10:09:02;;;;;;;0.87;0.87;;;26.40;75.60;;;33.33;38.39;99267.66;4996675;28;20187;-60
2023/08/03 10:11:35;;;;;;;0.90;0.90;;;26.90;75.80;;;33.74;36.56;99273.47;5003840;28;20195;-61
2023/08/03 10:14:05;;;;;;;0.90;0.90;;;27.40;71.70;;;34.29;35.54;99278.31;4999313;28;20190;-61
2023/08/03 10:16:33;;;;;;;1.10;1.00;;;27.80;70.00;;;35.34;34.00;99278.16;5009272;28;20663;-61
2023/08/03 10:19:02;;;;;;;1.02;0.95;;;28.30;68.60;;;36.09;32.77;99293.38;4992011;28;20484;-62
2023/08/03 10:21:30;;;;;;;1.48;0.95;;;28.80;66.60;;;36.50;31.15;99292.09;5003273;28;20259;-62
2023/08/03 10:24:09;;;;;;;2.35;1.02;;;29.30;64.30;;;37.14;30.77;99296.75;4999116;28;20215;-61
2023/08/03 10:26:39;;;;;;;1.52;1.00;;;29.70;62.20;;;37.09;29.20;99308.09;5011518;28;20246;-63